sensor_id;sensor_type;location;lat;lon;timestamp;pressure;altitude;pressure_sealevel;temperature;humidity
53522;BME280;39398;48.382;9.802;2022-10-16T00:00:22;93827.63;;;14.45;92.13
53522;BME280;39398;48.382;9.802;2022-10-16T00:01:25;93831.66;;;14.54;91.99
53522;BME280;39398;48.382;9.802;2022-10-16T00:02:28;93834.63;;;14.64;91.62
53522;BME280;39398;48.382;9.802;2022-10-16T00:03:29;93834.63;;;14.64;91.84
53522;BME280;39398;48.382;9.802;2022-10-16T00:04:30;93837.28;;;14.64;91.66
53522;BME280;39398;48.382;9.802;2022-10-16T00:05:33;93833.44;;;14.60;91.63
53522;BME280;39398;48.382;9.802;2022-10-16T00:06:34;93836.28;;;14.65;91.53
53522;BME280;39398;48.382;9.802;2022-10-16T00:07:36;93830.19;;;14.58;91.72
53522;BME280;39398;48.382;9.802;2022-10-16T00:08:38;93837.34;;;14.57;91.75
53522;BME280;39398;48.382;9.802;2022-10-16T00:09:40;93833.28;;;14.55;91.94
53522;BME280;39398;48.382;9.802;2022-10-16T00:10:41;93837.72;;;14.61;91.57
53522;BME280;39398;48.382;9.802;2022-10-16T00:11:42;93843.47;;;14.58;91.77
53522;BME280;39398;48.382;9.802;2022-10-16T00:12:44;93834.91;;;14.56;91.49
53522;BME280;39398;48.382;9.802;2022-10-16T00:13:47;93834.50;;;14.59;91.66
53522;BME280;39398;48.382;9.802;2022-10-16T00:14:49;93834.69;;;14.57;91.92
53522;BME280;39398;48.382;9.802;2022-10-16T00:15:50;93825.06;;;14.31;92.50
53522;BME280;39398;48.382;9.802;2022-10-16T00:16:52;93830.06;;;14.46;92.83
53522;BME280;39398;48.382;9.802;2022-10-16T00:17:55;93828.47;;;14.38;92.86
53522;BME280;39398;48.382;9.802;2022-10-16T00:18:56;93828.66;;;14.43;92.69
53522;BME280;39398;48.382;9.802;2022-10-16T00:19:58;93828.06;;;14.41;92.98
53522;BME280;39398;48.382;9.802;2022-10-16T00:21:03;93823.53;;;14.42;92.96
53522;BME280;39398;48.382;9.802;2022-10-16T00:22:06;93823.41;;;14.37;93.29
53522;BME280;39398;48.382;9.802;2022-10-16T00:23:08;93820.19;;;14.28;93.70
53522;BME280;39398;48.382;9.802;2022-10-16T00:24:10;93823.66;;;14.29;93.81
53522;BME280;39398;48.382;9.802;2022-10-16T00:25:11;93813.75;;;14.17;94.08
53522;BME280;39398;48.382;9.802;2022-10-16T00:26:17;93824.25;;;14.31;94.22
53522;BME280;39398;48.382;9.802;2022-10-16T00:27:19;93827.13;;;14.29;93.50
53522;BME280;39398;48.382;9.802;2022-10-16T00:28:20;93822.00;;;14.34;93.35
53522;BME280;39398;48.382;9.802;2022-10-16T00:29:22;93823.53;;;14.42;92.99
53522;BME280;39398;48.382;9.802;2022-10-16T00:30:23;93819.72;;;14.38;92.94
53522;BME280;39398;48.382;9.802;2022-10-16T00:31:25;93826.88;;;14.37;92.86
53522;BME280;39398;48.382;9.802;2022-10-16T00:32:27;93826.00;;;14.43;92.66
53522;BME280;39398;48.382;9.802;2022-10-16T00:33:30;93824.75;;;14.46;92.29
53522;BME280;39398;48.382;9.802;2022-10-16T00:34:31;93825.41;;;14.41;92.26
53522;BME280;39398;48.382;9.802;2022-10-16T00:35:33;93828.59;;;14.50;92.18
53522;BME280;39398;48.382;9.802;2022-10-16T00:36:34;93820.03;;;14.48;91.93
53522;BME280;39398;48.382;9.802;2022-10-16T00:37:36;93823.72;;;14.47;92.22
53522;BME280;39398;48.382;9.802;2022-10-16T00:38:37;93826.44;;;14.40;92.76
53522;BME280;39398;48.382;9.802;2022-10-16T00:39:39;93817.16;;;14.50;92.02
53522;BME280;39398;48.382;9.802;2022-10-16T00:40:40;93819.56;;;14.58;91.50
53522;BME280;39398;48.382;9.802;2022-10-16T00:41:42;93819.81;;;14.50;90.99
53522;BME280;39398;48.382;9.802;2022-10-16T00:42:43;93826.59;;;14.52;91.48
53522;BME280;39398;48.382;9.802;2022-10-16T00:43:46;93832.03;;;14.57;91.18
53522;BME280;39398;48.382;9.802;2022-10-16T00:44:50;93834.69;;;14.57;91.27
53522;BME280;39398;48.382;9.802;2022-10-16T00:45:52;93829.84;;;14.48;91.20
53522;BME280;39398;48.382;9.802;2022-10-16T00:46:54;93834.91;;;14.56;91.01
53522;BME280;39398;48.382;9.802;2022-10-16T00:47:56;93837.78;;;14.54;91.20
53522;BME280;39398;48.382;9.802;2022-10-16T00:49:03;93828.59;;;14.50;91.19
53522;BME280;39398;48.382;9.802;2022-10-16T00:50:08;93834.94;;;14.49;91.27
53522;BME280;39398;48.382;9.802;2022-10-16T00:51:10;93835.75;;;14.50;91.57
53522;BME280;39398;48.382;9.802;2022-10-16T00:52:13;93840.06;;;14.51;91.51
53522;BME280;39398;48.382;9.802;2022-10-16T00:53:16;93839.06;;;14.52;91.52
53522;BME280;39398;48.382;9.802;2022-10-16T00:54:20;93830.44;;;14.50;91.23
53522;BME280;39398;48.382;9.802;2022-10-16T00:55:23;93830.03;;;14.53;91.31
53522;BME280;39398;48.382;9.802;2022-10-16T00:56:25;93831.25;;;14.50;91.38
53522;BME280;39398;48.382;9.802;2022-10-16T00:57:26;93835.56;;;14.51;91.26
53522;BME280;39398;48.382;9.802;2022-10-16T00:58:28;93836.19;;;14.47;91.36
53522;BME280;39398;48.382;9.802;2022-10-16T00:59:32;93836.63;;;14.43;91.43
53522;BME280;39398;48.382;9.802;2022-10-16T01:00:34;93834.56;;;14.46;91.51
53522;BME280;39398;48.382;9.802;2022-10-16T01:01:35;93834.41;;;14.40;91.47
53522;BME280;39398;48.382;9.802;2022-10-16T01:02:37;93831.50;;;14.42;91.20
53522;BME280;39398;48.382;9.802;2022-10-16T01:03:38;93836.03;;;14.41;91.18
53522;BME280;39398;48.382;9.802;2022-10-16T01:04:43;93832.56;;;14.41;91.08
53522;BME280;39398;48.382;9.802;2022-10-16T01:05:49;93839.09;;;14.38;91.34
53522;BME280;39398;48.382;9.802;2022-10-16T01:06:59;93839.34;;;14.37;91.51
53522;BME280;39398;48.382;9.802;2022-10-16T01:08:08;93846.94;;;14.33;91.75
53522;BME280;39398;48.382;9.802;2022-10-16T01:09:17;93845.28;;;14.32;91.82
53522;BME280;39398;48.382;9.802;2022-10-16T01:10:27;93844.09;;;14.28;92.17
53522;BME280;39398;48.382;9.802;2022-10-16T01:11:33;93833.72;;;14.27;92.29
53522;BME280;39398;48.382;9.802;2022-10-16T01:12:40;93837.59;;;14.24;92.24
53522;BME280;39398;48.382;9.802;2022-10-16T01:13:51;93844.38;;;14.20;92.46
53522;BME280;39398;48.382;9.802;2022-10-16T01:14:57;93836.19;;;14.22;92.95
53522;BME280;39398;48.382;9.802;2022-10-16T01:16:04;93841.91;;;14.18;93.19
53522;BME280;39398;48.382;9.802;2022-10-16T01:17:10;93834.63;;;14.14;93.24
53522;BME280;39398;48.382;9.802;2022-10-16T01:18:16;93841.16;;;14.11;93.33
53522;BME280;39398;48.382;9.802;2022-10-16T01:19:26;93839.25;;;14.18;93.23
53522;BME280;39398;48.382;9.802;2022-10-16T01:20:35;93839.66;;;14.22;93.06
53522;BME280;39398;48.382;9.802;2022-10-16T01:21:41;93841.13;;;14.18;92.93
53522;BME280;39398;48.382;9.802;2022-10-16T01:22:53;93848.84;;;14.19;93.27
53522;BME280;39398;48.382;9.802;2022-10-16T01:24:03;93840.69;;;14.21;93.33
53522;BME280;39398;48.382;9.802;2022-10-16T01:25:12;93842.31;;;14.22;93.36
53522;BME280;39398;48.382;9.802;2022-10-16T01:26:30;93842.97;;;14.17;93.23
53522;BME280;39398;48.382;9.802;2022-10-16T01:27:39;93842.72;;;14.19;93.24
53522;BME280;39398;48.382;9.802;2022-10-16T01:28:45;93837.75;;;14.29;93.09
53522;BME280;39398;48.382;9.802;2022-10-16T01:29:52;93841.53;;;14.15;93.16
53522;BME280;39398;48.382;9.802;2022-10-16T01:30:58;93841.06;;;14.25;93.40
53522;BME280;39398;48.382;9.802;2022-10-16T01:32:04;93838.41;;;14.25;93.16
53522;BME280;39398;48.382;9.802;2022-10-16T01:33:10;93836.41;;;14.20;93.12
53522;BME280;39398;48.382;9.802;2022-10-16T01:34:19;93844.81;;;14.17;93.54
53522;BME280;39398;48.382;9.802;2022-10-16T01:35:25;93839.00;;;14.27;93.43
53522;BME280;39398;48.382;9.802;2022-10-16T01:36:35;93833.97;;;14.18;93.54
53522;BME280;39398;48.382;9.802;2022-10-16T01:37:41;93841.72;;;14.20;93.73
53522;BME280;39398;48.382;9.802;2022-10-16T01:38:48;93845.00;;;14.15;93.89
53522;BME280;39398;48.382;9.802;2022-10-16T01:39:51;93840.31;;;14.17;93.75
53522;BME280;39398;48.382;9.802;2022-10-16T01:40:59;93840.50;;;14.16;93.69
53522;BME280;39398;48.382;9.802;2022-10-16T01:42:05;93846.03;;;14.14;93.88
53522;BME280;39398;48.382;9.802;2022-10-16T01:43:12;93841.50;;;14.22;93.77
53522;BME280;39398;48.382;9.802;2022-10-16T01:44:19;93840.31;;;14.17;94.09
53522;BME280;39398;48.382;9.802;2022-10-16T01:45:23;93841.06;;;14.25;93.77
53522;BME280;39398;48.382;9.802;2022-10-16T01:46:26;93850.06;;;14.24;93.64
53522;BME280;39398;48.382;9.802;2022-10-16T01:47:29;93854.16;;;14.19;93.58
53522;BME280;39398;48.382;9.802;2022-10-16T01:48:33;93852.09;;;14.22;93.63
53522;BME280;39398;48.382;9.802;2022-10-16T01:49:37;93848.41;;;14.23;93.65
53522;BME280;39398;48.382;9.802;2022-10-16T01:50:42;93847.19;;;14.25;93.69
53522;BME280;39398;48.382;9.802;2022-10-16T01:51:47;93848.59;;;14.28;93.43
53522;BME280;39398;48.382;9.802;2022-10-16T01:52:52;93842.47;;;14.27;93.36
53522;BME280;39398;48.382;9.802;2022-10-16T01:53:59;93846.59;;;14.23;93.42
53522;BME280;39398;48.382;9.802;2022-10-16T01:55:04;93839.66;;;14.22;93.72
53522;BME280;39398;48.382;9.802;2022-10-16T01:56:09;93844.75;;;14.24;93.40
53522;BME280;39398;48.382;9.802;2022-10-16T01:57:14;93838.84;;;14.22;93.35
53522;BME280;39398;48.382;9.802;2022-10-16T01:58:18;93842.84;;;14.31;93.04
53522;BME280;39398;48.382;9.802;2022-10-16T01:59:21;93844.09;;;14.28;93.17
53522;BME280;39398;48.382;9.802;2022-10-16T02:00:26;93844.91;;;14.29;93.07
53522;BME280;39398;48.382;9.802;2022-10-16T02:01:30;93844.31;;;14.27;92.86
53522;BME280;39398;48.382;9.802;2022-10-16T02:02:33;93844.31;;;14.27;92.97
53522;BME280;39398;48.382;9.802;2022-10-16T02:03:36;93842.91;;;14.24;92.95
53522;BME280;39398;48.382;9.802;2022-10-16T02:04:43;93838.78;;;14.28;92.93
53522;BME280;39398;48.382;9.802;2022-10-16T02:05:50;93841.06;;;14.25;93.07
53522;BME280;39398;48.382;9.802;2022-10-16T02:06:53;93831.47;;;14.24;92.82
53522;BME280;39398;48.382;9.802;2022-10-16T02:07:54;93851.44;;;14.33;93.00
53522;BME280;39398;48.382;9.802;2022-10-16T02:08:56;93839.59;;;14.29;92.83
53522;BME280;39398;48.382;9.802;2022-10-16T02:09:59;93842.25;;;14.29;92.99
53522;BME280;39398;48.382;9.802;2022-10-16T02:11:02;93845.34;;;14.26;93.10
53522;BME280;39398;48.382;9.802;2022-10-16T02:12:09;93847.03;;;14.20;93.11
53522;BME280;39398;48.382;9.802;2022-10-16T02:13:17;93844.94;;;14.22;93.36
53522;BME280;39398;48.382;9.802;2022-10-16T02:14:21;93850.66;;;14.26;93.09
53522;BME280;39398;48.382;9.802;2022-10-16T02:15:23;93846.56;;;14.30;93.15
53522;BME280;39398;48.382;9.802;2022-10-16T02:16:33;93836.75;;;14.30;92.96
53522;BME280;39398;48.382;9.802;2022-10-16T02:17:35;93850.22;;;14.29;92.53
53522;BME280;39398;48.382;9.802;2022-10-16T02:18:36;93848.78;;;14.26;92.95
53522;BME280;39398;48.382;9.802;2022-10-16T02:19:38;93842.69;;;14.26;93.01
53522;BME280;39398;48.382;9.802;2022-10-16T02:20:48;93851.63;;;14.31;92.76
53522;BME280;39398;48.382;9.802;2022-10-16T02:21:55;93847.19;;;14.25;92.80
53522;BME280;39398;48.382;9.802;2022-10-16T02:22:58;93843.28;;;14.28;92.91
53522;BME280;39398;48.382;9.802;2022-10-16T02:24:03;93839.78;;;14.34;92.83
53522;BME280;39398;48.382;9.802;2022-10-16T02:25:10;93844.03;;;14.35;92.69
53522;BME280;39398;48.382;9.802;2022-10-16T02:26:14;93840.94;;;14.38;92.51
53522;BME280;39398;48.382;9.802;2022-10-16T02:27:20;93842.44;;;14.34;92.34
53522;BME280;39398;48.382;9.802;2022-10-16T02:28:29;93840.19;;;14.31;92.70
53522;BME280;39398;48.382;9.802;2022-10-16T02:29:39;93842.63;;;14.32;92.41
53522;BME280;39398;48.382;9.802;2022-10-16T02:30:45;93840.56;;;14.34;92.27
53522;BME280;39398;48.382;9.802;2022-10-16T02:31:50;93845.50;;;14.31;92.32
53522;BME280;39398;48.382;9.802;2022-10-16T02:32:54;93846.25;;;14.38;92.04
53522;BME280;39398;48.382;9.802;2022-10-16T02:33:58;93852.25;;;14.33;92.13
53522;BME280;39398;48.382;9.802;2022-10-16T02:35:02;93842.97;;;14.42;92.09
53522;BME280;39398;48.382;9.802;2022-10-16T02:36:04;93846.94;;;14.33;92.04
53522;BME280;39398;48.382;9.802;2022-10-16T02:37:06;93851.44;;;14.33;92.39
53522;BME280;39398;48.382;9.802;2022-10-16T02:38:08;93849.97;;;14.37;92.18
53522;BME280;39398;48.382;9.802;2022-10-16T02:39:16;93853.25;;;14.32;92.24
53522;BME280;39398;48.382;9.802;2022-10-16T02:40:19;93850.16;;;14.35;92.49
53522;BME280;39398;48.382;9.802;2022-10-16T02:41:25;93850.06;;;14.24;92.42
53522;BME280;39398;48.382;9.802;2022-10-16T02:42:28;93850.22;;;14.29;92.41
53522;BME280;39398;48.382;9.802;2022-10-16T02:43:30;93851.44;;;14.26;92.51
53522;BME280;39398;48.382;9.802;2022-10-16T02:44:31;93851.56;;;14.38;92.29
53522;BME280;39398;48.382;9.802;2022-10-16T02:45:34;93849.78;;;14.32;92.51
53522;BME280;39398;48.382;9.802;2022-10-16T02:46:35;93852.28;;;14.27;92.79
53522;BME280;39398;48.382;9.802;2022-10-16T02:47:37;93853.25;;;14.32;92.41
53522;BME280;39398;48.382;9.802;2022-10-16T02:48:38;93867.56;;;14.31;92.46
53522;BME280;39398;48.382;9.802;2022-10-16T02:49:40;93871.81;;;14.39;92.17
53522;BME280;39398;48.382;9.802;2022-10-16T02:50:41;93861.81;;;14.34;92.18
53522;BME280;39398;48.382;9.802;2022-10-16T02:51:43;93858.72;;;14.37;92.25
53522;BME280;39398;48.382;9.802;2022-10-16T02:52:44;93863.38;;;14.42;92.04
53522;BME280;39398;48.382;9.802;2022-10-16T02:53:46;93867.31;;;14.39;91.88
53522;BME280;39398;48.382;9.802;2022-10-16T02:54:47;93865.41;;;14.47;91.53
53522;BME280;39398;48.382;9.802;2022-10-16T02:55:49;93859.88;;;14.48;91.63
53522;BME280;39398;48.382;9.802;2022-10-16T02:56:50;93857.63;;;14.45;91.54
53522;BME280;39398;48.382;9.802;2022-10-16T02:57:52;93861.72;;;14.48;91.35
53522;BME280;39398;48.382;9.802;2022-10-16T02:58:53;93859.06;;;14.48;91.37
53522;BME280;39398;48.382;9.802;2022-10-16T02:59:54;93866.75;;;14.31;92.15
53522;BME280;39398;48.382;9.802;2022-10-16T03:00:57;93858.25;;;14.47;91.66
53522;BME280;39398;48.382;9.802;2022-10-16T03:01:59;93858.47;;;14.46;91.30
53522;BME280;39398;48.382;9.802;2022-10-16T03:03:00;93859.50;;;14.45;91.36
53522;BME280;39398;48.382;9.802;2022-10-16T03:04:02;93861.94;;;14.46;91.58
53522;BME280;39398;48.382;9.802;2022-10-16T03:05:04;93862.94;;;14.45;91.29
53522;BME280;39398;48.382;9.802;2022-10-16T03:06:06;93858.69;;;14.44;91.31
53522;BME280;39398;48.382;9.802;2022-10-16T03:07:07;93861.50;;;14.49;91.13
53522;BME280;39398;48.382;9.802;2022-10-16T03:08:09;93862.31;;;14.50;90.94
53522;BME280;39398;48.382;9.802;2022-10-16T03:09:10;93862.38;;;14.43;90.98
53522;BME280;39398;48.382;9.802;2022-10-16T03:10:12;93862.56;;;14.41;91.31
53522;BME280;39398;48.382;9.802;2022-10-16T03:11:13;93868.28;;;14.52;91.24
53522;BME280;39398;48.382;9.802;2022-10-16T03:12:15;93861.94;;;14.46;91.07
53522;BME280;39398;48.382;9.802;2022-10-16T03:13:16;93860.09;;;14.47;91.07
53522;BME280;39398;48.382;9.802;2022-10-16T03:14:18;93858.31;;;14.40;91.54
53522;BME280;39398;48.382;9.802;2022-10-16T03:15:19;93860.63;;;14.30;91.83
53522;BME280;39398;48.382;9.802;2022-10-16T03:16:22;93858.53;;;14.39;91.68
53522;BME280;39398;48.382;9.802;2022-10-16T03:17:24;93863.25;;;14.37;92.03
53522;BME280;39398;48.382;9.802;2022-10-16T03:18:26;93863.66;;;14.34;91.79
53522;BME280;39398;48.382;9.802;2022-10-16T03:19:27;93861.38;;;14.37;91.97
53522;BME280;39398;48.382;9.802;2022-10-16T03:20:28;93849.63;;;14.27;92.32
53522;BME280;39398;48.382;9.802;2022-10-16T03:21:30;93852.06;;;14.28;92.29
53522;BME280;39398;48.382;9.802;2022-10-16T03:22:31;93848.59;;;14.28;92.11
53522;BME280;39398;48.382;9.802;2022-10-16T03:23:33;93846.13;;;14.33;92.67
53522;BME280;39398;48.382;9.802;2022-10-16T03:24:34;93842.63;;;14.32;92.49
53522;BME280;39398;48.382;9.802;2022-10-16T03:25:36;93842.59;;;14.39;91.97
53522;BME280;39398;48.382;9.802;2022-10-16T03:26:37;93848.53;;;14.34;92.03
53522;BME280;39398;48.382;9.802;2022-10-16T03:27:39;93846.06;;;14.39;92.09
53522;BME280;39398;48.382;9.802;2022-10-16T03:28:40;93840.81;;;14.33;92.26
53522;BME280;39398;48.382;9.802;2022-10-16T03:29:41;93848.28;;;14.42;91.82
53522;BME280;39398;48.382;9.802;2022-10-16T03:30:43;93841.25;;;14.30;92.17
53522;BME280;39398;48.382;9.802;2022-10-16T03:31:46;93838.72;;;14.35;92.25
53522;BME280;39398;48.382;9.802;2022-10-16T03:32:48;93839.94;;;14.39;91.84
53522;BME280;39398;48.382;9.802;2022-10-16T03:33:49;93840.75;;;14.39;91.54
53522;BME280;39398;48.382;9.802;2022-10-16T03:34:50;93844.22;;;14.40;91.59
53522;BME280;39398;48.382;9.802;2022-10-16T03:35:52;93855.66;;;14.40;91.16
53522;BME280;39398;48.382;9.802;2022-10-16T03:36:54;93846.59;;;14.48;91.09
53522;BME280;39398;48.382;9.802;2022-10-16T03:37:55;93845.63;;;14.42;91.17
53522;BME280;39398;48.382;9.802;2022-10-16T03:38:57;93853.66;;;14.36;91.39
53522;BME280;39398;48.382;9.802;2022-10-16T03:39:58;93862.38;;;14.43;91.28
53522;BME280;39398;48.382;9.802;2022-10-16T03:41:00;93860.91;;;14.47;90.94
53522;BME280;39398;48.382;9.802;2022-10-16T03:42:02;93855.03;;;14.38;91.48
53522;BME280;39398;48.382;9.802;2022-10-16T03:43:03;93849.78;;;14.32;91.46
53522;BME280;39398;48.382;9.802;2022-10-16T03:44:05;93856.13;;;14.31;91.46
53522;BME280;39398;48.382;9.802;2022-10-16T03:45:07;93848.22;;;14.24;92.32
53522;BME280;39398;48.382;9.802;2022-10-16T03:46:08;93847.19;;;14.25;92.18
53522;BME280;39398;48.382;9.802;2022-10-16T03:47:11;93844.56;;;14.18;92.14
53522;BME280;39398;48.382;9.802;2022-10-16T03:48:13;93844.84;;;14.10;92.87
53522;BME280;39398;48.382;9.802;2022-10-16T03:49:14;93848.84;;;14.19;92.95
53522;BME280;39398;48.382;9.802;2022-10-16T03:50:16;93846.59;;;14.23;92.33
53522;BME280;39398;48.382;9.802;2022-10-16T03:51:17;93850.31;;;14.15;92.17
53522;BME280;39398;48.382;9.802;2022-10-16T03:52:18;93850.31;;;14.15;92.27
53522;BME280;39398;48.382;9.802;2022-10-16T03:53:20;93845.56;;;14.24;92.36
53522;BME280;39398;48.382;9.802;2022-10-16T03:54:22;93853.53;;;14.24;92.22
53522;BME280;39398;48.382;9.802;2022-10-16T03:55:23;93855.19;;;14.18;92.49
53522;BME280;39398;48.382;9.802;2022-10-16T03:56:25;93856.84;;;14.13;92.11
53522;BME280;39398;48.382;9.802;2022-10-16T03:57:27;93854.59;;;14.16;92.11
53522;BME280;39398;48.382;9.802;2022-10-16T03:58:29;93863.34;;;14.24;91.89
53522;BME280;39398;48.382;9.802;2022-10-16T03:59:31;93856.13;;;14.31;91.67
53522;BME280;39398;48.382;9.802;2022-10-16T04:00:32;93859.88;;;14.23;91.93
53522;BME280;39398;48.382;9.802;2022-10-16T04:01:33;93857.84;;;14.18;91.92
53522;BME280;39398;48.382;9.802;2022-10-16T04:02:36;93865.75;;;14.25;91.91
53522;BME280;39398;48.382;9.802;2022-10-16T04:03:38;93862.16;;;14.13;92.07
53522;BME280;39398;48.382;9.802;2022-10-16T04:04:39;93862.78;;;14.15;92.03
53522;BME280;39398;48.382;9.802;2022-10-16T04:05:41;93862.13;;;14.19;92.04
53522;BME280;39398;48.382;9.802;2022-10-16T04:06:42;93862.53;;;14.16;92.08
53522;BME280;39398;48.382;9.802;2022-10-16T04:07:44;93868.84;;;14.22;91.89
53522;BME280;39398;48.382;9.802;2022-10-16T04:08:45;93872.53;;;14.21;91.90
53522;BME280;39398;48.382;9.802;2022-10-16T04:09:46;93871.50;;;14.22;92.14
53522;BME280;39398;48.382;9.802;2022-10-16T04:10:48;93869.50;;;14.17;92.29
53522;BME280;39398;48.382;9.802;2022-10-16T04:11:49;93874.88;;;14.11;92.31
53522;BME280;39398;48.382;9.802;2022-10-16T04:12:51;93877.66;;;14.16;92.37
53522;BME280;39398;48.382;9.802;2022-10-16T04:13:52;93871.56;;;14.15;92.14
53522;BME280;39398;48.382;9.802;2022-10-16T04:14:54;93876.06;;;14.15;92.26
53522;BME280;39398;48.382;9.802;2022-10-16T04:15:55;93870.09;;;14.19;92.34
53522;BME280;39398;48.382;9.802;2022-10-16T04:16:57;93877.53;;;14.11;92.26
53522;BME280;39398;48.382;9.802;2022-10-16T04:17:59;93874.44;;;14.14;92.41
53522;BME280;39398;48.382;9.802;2022-10-16T04:19:01;93870.31;;;14.18;92.41
53522;BME280;39398;48.382;9.802;2022-10-16T04:20:04;93878.06;;;14.19;92.20
53522;BME280;39398;48.382;9.802;2022-10-16T04:21:06;93884.41;;;14.18;92.23
53522;BME280;39398;48.382;9.802;2022-10-16T04:22:08;93876.44;;;14.18;92.14
53522;BME280;39398;48.382;9.802;2022-10-16T04:23:09;93875.44;;;14.13;92.39
53522;BME280;39398;48.382;9.802;2022-10-16T04:24:11;93874.34;;;13.95;93.06
53522;BME280;39398;48.382;9.802;2022-10-16T04:25:12;93879.03;;;13.93;92.99
53522;BME280;39398;48.382;9.802;2022-10-16T04:26:14;93871.81;;;14.07;92.97
53522;BME280;39398;48.382;9.802;2022-10-16T04:27:15;93884.88;;;14.09;92.85
53522;BME280;39398;48.382;9.802;2022-10-16T04:28:17;93877.75;;;14.03;93.24
53522;BME280;39398;48.382;9.802;2022-10-16T04:29:18;93884.91;;;14.02;93.31
53522;BME280;39398;48.382;9.802;2022-10-16T04:30:20;93881.59;;;14.07;93.19
53522;BME280;39398;48.382;9.802;2022-10-16T04:31:22;93883.88;;;14.03;93.36
53522;BME280;39398;48.382;9.802;2022-10-16T04:32:23;93881.03;;;14.05;93.02
53522;BME280;39398;48.382;9.802;2022-10-16T04:33:26;93876.13;;;14.02;92.96
53522;BME280;39398;48.382;9.802;2022-10-16T04:34:27;93886.75;;;14.02;93.29
53522;BME280;39398;48.382;9.802;2022-10-16T04:35:29;93883.88;;;14.03;93.42
53522;BME280;39398;48.382;9.802;2022-10-16T04:36:30;93878.88;;;13.88;93.25
53522;BME280;39398;48.382;9.802;2022-10-16T04:37:32;93875.16;;;13.96;93.38
53522;BME280;39398;48.382;9.802;2022-10-16T04:38:34;93875.38;;;13.94;93.71
53522;BME280;39398;48.382;9.802;2022-10-16T04:39:35;93876.00;;;13.90;94.11
53522;BME280;39398;48.382;9.802;2022-10-16T04:40:36;93885.75;;;13.96;93.45
53522;BME280;39398;48.382;9.802;2022-10-16T04:41:38;93884.53;;;13.99;93.19
53522;BME280;39398;48.382;9.802;2022-10-16T04:42:40;93889.03;;;13.98;93.30
53522;BME280;39398;48.382;9.802;2022-10-16T04:43:41;93883.72;;;13.98;93.32
53522;BME280;39398;48.382;9.802;2022-10-16T04:44:42;93880.78;;;14.06;93.12
53522;BME280;39398;48.382;9.802;2022-10-16T04:45:44;93887.53;;;14.09;92.87
53522;BME280;39398;48.382;9.802;2022-10-16T04:46:45;93889.19;;;14.03;92.83
53522;BME280;39398;48.382;9.802;2022-10-16T04:47:47;93892.25;;;14.00;93.08
53522;BME280;39398;48.382;9.802;2022-10-16T04:48:50;93888.00;;;13.99;93.15
53522;BME280;39398;48.382;9.802;2022-10-16T04:49:51;93893.69;;;14.03;92.92
53522;BME280;39398;48.382;9.802;2022-10-16T04:50:52;93893.63;;;14.09;92.93
53522;BME280;39398;48.382;9.802;2022-10-16T04:51:55;93891.84;;;14.03;92.92
53522;BME280;39398;48.382;9.802;2022-10-16T04:52:57;93896.75;;;14.00;93.50
53522;BME280;39398;48.382;9.802;2022-10-16T04:53:58;93891.63;;;14.05;92.97
53522;BME280;39398;48.382;9.802;2022-10-16T04:55:00;93893.88;;;14.08;93.06
53522;BME280;39398;48.382;9.802;2022-10-16T04:56:01;93891.88;;;13.96;93.26
53522;BME280;39398;48.382;9.802;2022-10-16T04:57:03;93895.94;;;13.99;93.18
53522;BME280;39398;48.382;9.802;2022-10-16T04:58:05;93894.09;;;14.00;93.29
53522;BME280;39398;48.382;9.802;2022-10-16T04:59:06;93891.44;;;14.00;93.36
53522;BME280;39398;48.382;9.802;2022-10-16T05:00:09;93893.69;;;14.03;93.21
53522;BME280;39398;48.382;9.802;2022-10-16T05:01:10;93892.06;;;14.02;93.41
53522;BME280;39398;48.382;9.802;2022-10-16T05:02:12;93892.44;;;14.05;93.43
53522;BME280;39398;48.382;9.802;2022-10-16T05:03:13;93895.34;;;13.97;93.35
53522;BME280;39398;48.382;9.802;2022-10-16T05:04:16;93887.38;;;13.97;93.20
53522;BME280;39398;48.382;9.802;2022-10-16T05:05:18;93889.09;;;13.85;93.65
53522;BME280;39398;48.382;9.802;2022-10-16T05:06:19;93889.06;;;13.91;93.88
53522;BME280;39398;48.382;9.802;2022-10-16T05:07:21;93887.19;;;13.99;93.73
53522;BME280;39398;48.382;9.802;2022-10-16T05:08:22;93886.94;;;14.00;93.27
53522;BME280;39398;48.382;9.802;2022-10-16T05:09:24;93876.94;;;14.02;93.19
53522;BME280;39398;48.382;9.802;2022-10-16T05:10:26;93882.44;;;14.01;93.29
53522;BME280;39398;48.382;9.802;2022-10-16T05:11:27;93880.22;;;14.04;93.07
53522;BME280;39398;48.382;9.802;2022-10-16T05:12:29;93876.13;;;14.02;92.96
53522;BME280;39398;48.382;9.802;2022-10-16T05:13:30;93870.66;;;13.96;93.20
53522;BME280;39398;48.382;9.802;2022-10-16T05:14:31;93875.34;;;14.01;93.25
53522;BME280;39398;48.382;9.802;2022-10-16T05:15:33;93881.03;;;14.05;92.67
53522;BME280;39398;48.382;9.802;2022-10-16T05:16:34;93876.09;;;14.08;92.41
53522;BME280;39398;48.382;9.802;2022-10-16T05:17:36;93874.91;;;14.04;92.45
53522;BME280;39398;48.382;9.802;2022-10-16T05:18:44;93870.84;;;14.02;92.83
53522;BME280;39398;48.382;9.802;2022-10-16T05:19:47;93878.31;;;14.11;92.44
53522;BME280;39398;48.382;9.802;2022-10-16T05:20:48;93874.22;;;14.15;92.37
53522;BME280;39398;48.382;9.802;2022-10-16T05:21:49;93876.25;;;14.13;91.95
53522;BME280;39398;48.382;9.802;2022-10-16T05:22:51;93877.28;;;14.12;91.90
53522;BME280;39398;48.382;9.802;2022-10-16T05:23:53;93877.28;;;14.12;91.89
53522;BME280;39398;48.382;9.802;2022-10-16T05:24:54;93876.09;;;14.08;92.16
53522;BME280;39398;48.382;9.802;2022-10-16T05:25:57;93877.97;;;14.01;92.05
53522;BME280;39398;48.382;9.802;2022-10-16T05:26:58;93876.91;;;14.09;92.18
53522;BME280;39398;48.382;9.802;2022-10-16T05:28:00;93883.84;;;14.10;92.15
53522;BME280;39398;48.382;9.802;2022-10-16T05:29:01;93873.16;;;14.16;91.88
53522;BME280;39398;48.382;9.802;2022-10-16T05:30:04;93877.91;;;14.14;91.95
53522;BME280;39398;48.382;9.802;2022-10-16T05:31:10;93882.41;;;14.14;91.76
53522;BME280;39398;48.382;9.802;2022-10-16T05:32:11;93884.41;;;14.18;91.55
53522;BME280;39398;48.382;9.802;2022-10-16T05:33:13;93888.50;;;14.14;91.67